createdAt,value
2022-10-26T00:01:21.539Z,98796.19
2022-10-26T00:03:48.426Z,98795.19
2022-10-26T00:06:20.624Z,98785.78
2022-10-26T00:08:48.492Z,98789.97
2022-10-26T00:11:16.100Z,98794.16
2022-10-26T00:13:45.360Z,98796.00
2022-10-26T00:16:14.049Z,98787.78
2022-10-26T00:18:40.855Z,98785.38
2022-10-26T00:21:09.429Z,98783.56
2022-10-26T00:23:36.275Z,98783.75
2022-10-26T00:26:03.704Z,98778.19
2022-10-26T00:28:30.780Z,98781.38
2022-10-26T00:31:04.454Z,98784.38
2022-10-26T00:33:33.994Z,98784.19
2022-10-26T00:36:00.851Z,98784.19
2022-10-26T00:38:27.982Z,98772.38
2022-10-26T00:40:54.711Z,98776.94
2022-10-26T00:43:21.293Z,98783.13
2022-10-26T00:45:50.944Z,98780.53
2022-10-26T00:48:25.193Z,98780.16
2022-10-26T00:50:54.405Z,98783.94
2022-10-26T00:53:21.365Z,98779.09
2022-10-26T00:55:50.894Z,98770.31
2022-10-26T00:58:18.410Z,98772.91
2022-10-26T01:00:45.304Z,98764.09
2022-10-26T01:03:12.240Z,98765.47
2022-10-26T01:05:42.139Z,98757.66
2022-10-26T01:08:09.450Z,98760.25
2022-10-26T01:10:38.756Z,98750.63
2022-10-26T01:13:06.364Z,98747.81
2022-10-26T01:16:25.874Z,98741.59
2022-10-26T01:19:23.470Z,98734.38
2022-10-26T01:22:00.444Z,98730.75
2022-10-26T01:24:54.988Z,98727.97
2022-10-26T01:27:44.964Z,98727.19
2022-10-26T01:30:21.289Z,98739.97
2022-10-26T01:32:55.022Z,98745.78
2022-10-26T01:35:26.356Z,98743.38
2022-10-26T01:38:26.454Z,98747.41
2022-10-26T01:41:06.896Z,98744.25
2022-10-26T01:43:37.838Z,98744.47
2022-10-26T01:46:06.765Z,98748.06
2022-10-26T01:48:35.105Z,98742.44
2022-10-26T01:51:04.810Z,98744.66
2022-10-26T01:53:31.447Z,98748.69
2022-10-26T01:55:59.727Z,98752.28
2022-10-26T01:58:36.651Z,98750.06
2022-10-26T02:01:17.120Z,98747.44
2022-10-26T02:04:31.149Z,98750.66
2022-10-26T02:07:21.950Z,98743.88
2022-10-26T02:09:54.831Z,98746.66
2022-10-26T02:12:34.108Z,98734.41
2022-10-26T02:15:11.185Z,98734.22
2022-10-26T02:17:41.182Z,98738.78
2022-10-26T02:20:13.977Z,98749.16
2022-10-26T02:22:47.297Z,98746.72
2022-10-26T02:25:44.296Z,98758.53
2022-10-26T02:28:15.286Z,98754.72
2022-10-26T02:30:43.932Z,98751.94
2022-10-26T02:33:13.661Z,98750.56
2022-10-26T02:35:43.352Z,98746.31
2022-10-26T02:38:13.397Z,98738.75
2022-10-26T02:40:41.878Z,98732.09
2022-10-26T02:43:13.986Z,98735.28
2022-10-26T02:45:48.115Z,98735.72
2022-10-26T02:48:15.692Z,98738.91
2022-10-26T02:51:11.652Z,98743.53
2022-10-26T02:53:55.842Z,98744.72
2022-10-26T02:56:31.001Z,98747.31
2022-10-26T02:59:03.660Z,98754.13
2022-10-26T03:01:34.182Z,98758.13
2022-10-26T03:04:01.057Z,98753.56
2022-10-26T03:06:27.760Z,98746.00
2022-10-26T03:08:54.719Z,98753.00
2022-10-26T03:11:21.287Z,98742.78
2022-10-26T03:13:50.802Z,98735.94
2022-10-26T03:16:17.618Z,98744.31
2022-10-26T03:18:47.084Z,98745.72
2022-10-26T03:21:13.826Z,98738.66
2022-10-26T03:23:41.945Z,98737.84
2022-10-26T03:26:11.294Z,98736.41
2022-10-26T03:28:37.968Z,98741.41
2022-10-26T03:31:04.692Z,98731.34
2022-10-26T03:33:31.329Z,98738.13
2022-10-26T03:36:00.217Z,98730.72
2022-10-26T03:38:29.838Z,98737.13
2022-10-26T03:40:56.585Z,98735.31
2022-10-26T03:43:24.475Z,98726.91
2022-10-26T03:45:51.169Z,98726.13
2022-10-26T03:48:18.015Z,98723.50
2022-10-26T03:50:44.801Z,98714.06
2022-10-26T03:53:11.523Z,98712.50
2022-10-26T03:55:38.345Z,98717.34
2022-10-26T03:58:05.142Z,98718.91
2022-10-26T04:00:32.073Z,98710.31
2022-10-26T04:03:00.053Z,98726.97
2022-10-26T04:05:28.553Z,98738.38
2022-10-26T04:08:00.721Z,98741.81
2022-10-26T04:10:27.997Z,98746.06
2022-10-26T04:13:01.839Z,98739.88
2022-10-26T04:15:29.248Z,98735.06
2022-10-26T04:18:02.203Z,98742.13
2022-10-26T04:20:30.405Z,98747.97
2022-10-26T04:23:02.978Z,98740.75
2022-10-26T04:25:33.059Z,98743.38
2022-10-26T04:28:00.709Z,98744.56
2022-10-26T04:30:27.453Z,98732.50
2022-10-26T04:32:54.238Z,98742.13
2022-10-26T04:35:21.235Z,98746.50
2022-10-26T04:37:48.174Z,98739.66
2022-10-26T04:40:18.124Z,98733.63
2022-10-26T04:42:48.391Z,98736.63
2022-10-26T04:45:16.030Z,98740.84
2022-10-26T04:47:43.612Z,98746.25
2022-10-26T04:50:12.505Z,98741.06
2022-10-26T04:52:39.678Z,98731.41
2022-10-26T04:55:07.798Z,98734.19
2022-10-26T04:57:37.616Z,98735.56
2022-10-26T05:00:05.277Z,98731.41
2022-10-26T05:02:42.046Z,98749.41
2022-10-26T05:05:11.327Z,98746.78
2022-10-26T05:07:40.992Z,98746.19
2022-10-26T05:10:08.452Z,98754.81
2022-10-26T05:12:35.013Z,98746.41
2022-10-26T05:15:03.954Z,98755.41
2022-10-26T05:17:33.015Z,98755.53
2022-10-26T05:20:00.462Z,98751.38
2022-10-26T05:22:27.434Z,98749.78
2022-10-26T05:24:53.967Z,98747.16
2022-10-26T05:27:20.723Z,98747.94
2022-10-26T05:29:47.183Z,98750.53
2022-10-26T05:32:13.793Z,98752.13
2022-10-26T05:34:41.558Z,98762.72
2022-10-26T05:37:08.227Z,98755.28
2022-10-26T05:39:34.673Z,98748.47
2022-10-26T05:42:01.122Z,98750.88
2022-10-26T05:44:27.619Z,98753.78
2022-10-26T05:46:54.239Z,98750.63
2022-10-26T05:49:20.738Z,98750.38
2022-10-26T05:51:47.167Z,98756.81
2022-10-26T05:54:14.134Z,98758.19
2022-10-26T05:56:41.839Z,98753.59
2022-10-26T05:59:13.871Z,98751.94
2022-10-26T06:01:55.652Z,98755.16
2022-10-26T06:04:47.814Z,98756.31
2022-10-26T06:07:20.779Z,98756.31
2022-10-26T06:09:48.158Z,98757.28
2022-10-26T06:12:18.505Z,98753.06
2022-10-26T06:14:46.826Z,98756.31
2022-10-26T06:17:35.099Z,98753.84
2022-10-26T06:20:22.246Z,98745.44
2022-10-26T06:23:05.519Z,98758.28
2022-10-26T06:25:55.006Z,98770.13
2022-10-26T06:28:37.274Z,98773.31
2022-10-26T06:31:04.265Z,98764.25
2022-10-26T06:33:31.651Z,98785.88
2022-10-26T06:36:10.758Z,98781.75
2022-10-26T06:38:39.868Z,98772.97
2022-10-26T06:41:06.884Z,98763.13
2022-10-26T06:43:35.891Z,98768.56
2022-10-26T06:46:14.506Z,98765.94
2022-10-26T06:48:52.698Z,98782.94
2022-10-26T06:51:20.262Z,98765.47
2022-10-26T06:53:57.071Z,98766.50
2022-10-26T06:56:24.654Z,98764.50
2022-10-26T06:58:54.470Z,98768.50
2022-10-26T07:01:21.096Z,98758.56
2022-10-26T07:03:47.607Z,98757.53
2022-10-26T07:08:45.964Z,98746.72
2022-10-26T07:11:12.586Z,98756.19
2022-10-26T07:13:39.207Z,98760.53
2022-10-26T07:16:05.947Z,98757.81
2022-10-26T07:18:32.554Z,98770.34
2022-10-26T07:20:59.807Z,98772.66
2022-10-26T07:23:26.460Z,98780.00
2022-10-26T07:25:53.078Z,98799.00
2022-10-26T07:28:19.555Z,98810.09
2022-10-26T07:30:46.004Z,98819.09
2022-10-26T07:33:14.444Z,98828.22
2022-10-26T07:35:41.111Z,98825.97
2022-10-26T07:38:08.218Z,98819.88
2022-10-26T07:40:36.884Z,98832.31
2022-10-26T07:43:03.739Z,98820.31
2022-10-26T07:45:30.717Z,98834.59
2022-10-26T07:47:57.504Z,98832.09
2022-10-26T07:50:24.684Z,98843.69
2022-10-26T07:52:51.565Z,98831.66
2022-10-26T07:55:19.043Z,98833.81
2022-10-26T07:57:46.756Z,98830.53
2022-10-26T08:00:16.411Z,98832.38
2022-10-26T08:02:43.058Z,98830.47
2022-10-26T08:05:09.527Z,98834.97
2022-10-26T08:07:41.071Z,98831.69
2022-10-26T08:10:08.087Z,98840.00
2022-10-26T08:12:34.734Z,98834.78
2022-10-26T08:15:01.160Z,98843.75
2022-10-26T08:17:28.999Z,98842.75
2022-10-26T08:19:55.663Z,98845.91
2022-10-26T08:22:22.107Z,98854.94
2022-10-26T08:24:48.591Z,98853.56
2022-10-26T08:27:15.408Z,98860.44
2022-10-26T08:29:42.351Z,98856.69
2022-10-26T08:32:08.979Z,98849.50
2022-10-26T08:34:35.422Z,98853.84
2022-10-26T08:37:02.237Z,98856.94
2022-10-26T08:39:30.704Z,98850.88
2022-10-26T08:42:16.847Z,98849.59
2022-10-26T08:44:48.079Z,98849.97
2022-10-26T08:47:19.561Z,98854.84
2022-10-26T08:49:55.249Z,98858.03
2022-10-26T08:52:33.097Z,98858.00
2022-10-26T08:55:02.686Z,98862.69
2022-10-26T08:57:38.110Z,98858.13
2022-10-26T09:00:07.606Z,98856.63
2022-10-26T09:02:34.316Z,98860.50
2022-10-26T09:05:01.626Z,98859.47
2022-10-26T09:07:42.815Z,98867.31
2022-10-26T09:13:13.412Z,98870.75
2022-10-26T09:16:00.159Z,98863.94
2022-10-26T09:19:04.563Z,98867.19
2022-10-26T09:21:33.992Z,98871.81
2022-10-26T09:24:05.473Z,98883.66
2022-10-26T09:26:41.908Z,98884.47
2022-10-26T09:29:13.914Z,98885.25
2022-10-26T09:31:44.822Z,98884.09
2022-10-26T09:34:20.602Z,98894.63
2022-10-26T09:36:53.383Z,98890.13
2022-10-26T09:39:42.133Z,98894.34
2022-10-26T09:42:49.284Z,98896.06
2022-10-26T09:45:22.595Z,98892.41
2022-10-26T09:47:52.941Z,98895.84
2022-10-26T09:50:40.439Z,98897.41
2022-10-26T09:53:06.911Z,98899.03
2022-10-26T09:55:40.484Z,98898.69
2022-10-26T09:58:14.510Z,98898.97
2022-10-26T10:00:42.723Z,98902.88
2022-10-26T10:03:29.888Z,98897.97
2022-10-26T10:06:21.303Z,98902.44
2022-10-26T10:09:24.598Z,98907.13
2022-10-26T10:11:56.321Z,98907.44
2022-10-26T10:14:34.645Z,98904.56
2022-10-26T10:17:19.441Z,98914.91
2022-10-26T10:19:46.411Z,98920.91
2022-10-26T10:22:23.896Z,98925.69
2022-10-26T10:25:01.218Z,98927.56
2022-10-26T10:27:29.966Z,98928.13
2022-10-26T10:30:03.038Z,98928.22
2022-10-26T10:32:35.640Z,98925.72
2022-10-26T10:35:23.464Z,98928.97
2022-10-26T10:37:51.733Z,98928.56
2022-10-26T10:40:24.654Z,98930.22
2022-10-26T10:42:53.703Z,98930.19
2022-10-26T10:45:30.657Z,98920.94
2022-10-26T10:48:13.969Z,98924.63
2022-10-26T10:50:53.374Z,98935.25
2022-10-26T10:53:30.467Z,98938.16
2022-10-26T10:56:21.684Z,98936.81
2022-10-26T10:59:26.989Z,98934.91
2022-10-26T11:02:01.176Z,98945.09
2022-10-26T11:04:27.675Z,98938.88
2022-10-26T11:06:59.474Z,98943.41
2022-10-26T11:09:29.348Z,98938.28
2022-10-26T11:12:03.902Z,98943.28
2022-10-26T11:14:39.120Z,98949.34
2022-10-26T11:17:24.377Z,98952.75
2022-10-26T11:20:02.418Z,98949.03
2022-10-26T11:22:37.040Z,98954.13
2022-10-26T11:25:07.457Z,98947.19
2022-10-26T11:27:42.220Z,98954.13
2022-10-26T11:30:25.530Z,98954.72
2022-10-26T11:33:03.750Z,98946.53
2022-10-26T11:35:36.686Z,98942.84
2022-10-26T11:38:16.081Z,98947.56
2022-10-26T11:41:10.350Z,98946.78
2022-10-26T11:43:45.876Z,98950.81
2022-10-26T11:46:24.327Z,98952.66
2022-10-26T11:49:11.040Z,98952.03
2022-10-26T11:51:52.658Z,98952.81
2022-10-26T11:54:35.986Z,98970.28
2022-10-26T11:57:04.942Z,98955.84
2022-10-26T11:59:37.392Z,98960.63
2022-10-26T12:02:17.805Z,98961.13
2022-10-26T12:04:50.125Z,98966.41
2022-10-26T12:07:26.595Z,98968.03
2022-10-26T12:09:54.694Z,98963.31
2022-10-26T12:12:33.832Z,98965.19
2022-10-26T12:15:24.816Z,98967.31
2022-10-26T12:18:54.590Z,98965.50
2022-10-26T12:21:26.010Z,98978.75
2022-10-26T12:24:02.954Z,98972.75
2022-10-26T12:26:29.403Z,98976.19
2022-10-26T12:29:01.986Z,98974.94
2022-10-26T12:31:37.778Z,98983.13
2022-10-26T12:34:13.259Z,98976.41
2022-10-26T12:36:48.500Z,98983.53
2022-10-26T12:39:33.504Z,98975.34
2022-10-26T12:42:06.010Z,98969.50
2022-10-26T12:45:00.042Z,98973.00
2022-10-26T12:47:32.563Z,98966.75
2022-10-26T12:50:01.641Z,98976.00
2022-10-26T12:52:51.500Z,98968.78
2022-10-26T12:55:38.872Z,98968.47
2022-10-26T12:58:43.235Z,98973.31
2022-10-26T13:01:30.976Z,98976.00
2022-10-26T13:04:13.059Z,98976.63
2022-10-26T13:06:45.679Z,98978.56
2022-10-26T13:09:24.879Z,98968.03
2022-10-26T13:11:55.291Z,98974.41
2022-10-26T13:14:26.175Z,98970.94
2022-10-26T13:16:52.979Z,98966.94
2022-10-26T13:19:47.345Z,98969.28
2022-10-26T13:22:21.698Z,98975.84
2022-10-26T13:25:01.795Z,98980.31
2022-10-26T13:27:41.763Z,98978.16
2022-10-26T13:30:20.864Z,98973.91
2022-10-26T13:32:54.569Z,98972.31
2022-10-26T13:35:24.141Z,98980.75
2022-10-26T13:37:54.375Z,98969.41
2022-10-26T13:40:25.237Z,98971.19
2022-10-26T13:42:57.560Z,98989.88
2022-10-26T13:45:54.545Z,98983.75
2022-10-26T13:48:33.715Z,98994.75
2022-10-26T13:51:03.976Z,98996.81
2022-10-26T13:53:35.447Z,98996.00
2022-10-26T13:56:17.611Z,99007.25
2022-10-26T13:58:59.049Z,99007.72
2022-10-26T14:01:26.722Z,99007.19
2022-10-26T14:03:53.511Z,99000.56
2022-10-26T14:06:23.911Z,99006.34
2022-10-26T14:08:52.944Z,99003.78
2022-10-26T14:11:23.124Z,99016.44
2022-10-26T14:13:50.806Z,99009.38
2022-10-26T14:16:20.232Z,99013.13
2022-10-26T14:18:48.768Z,99014.44
2022-10-26T14:21:22.891Z,99022.50
2022-10-26T14:23:52.826Z,99019.56
2022-10-26T14:26:27.923Z,99017.16
2022-10-26T14:28:57.652Z,99024.75
2022-10-26T14:31:32.382Z,99032.75
2022-10-26T14:34:01.573Z,99025.41
2022-10-26T14:36:55.247Z,99029.47
2022-10-26T14:39:45.336Z,99030.81
2022-10-26T14:42:34.216Z,99037.84
2022-10-26T14:45:01.755Z,99037.69
2022-10-26T14:47:30.869Z,99039.22
2022-10-26T14:52:35.612Z,99044.88
2022-10-26T14:55:13.395Z,99048.81
2022-10-26T14:57:42.609Z,99048.72
2022-10-26T15:00:17.817Z,99049.91
2022-10-26T15:02:47.751Z,99045.41
2022-10-26T15:05:35.744Z,99049.09
2022-10-26T15:08:03.258Z,99053.03
2022-10-26T15:10:47.070Z,99056.47
2022-10-26T15:13:31.669Z,99056.72
2022-10-26T15:16:09.551Z,99067.50
2022-10-26T15:18:38.416Z,99070.94
2022-10-26T15:21:22.481Z,99067.34
2022-10-26T15:23:50.439Z,99061.25
2022-10-26T15:26:17.194Z,99065.97
2022-10-26T15:28:44.551Z,99080.69
2022-10-26T15:31:10.979Z,99073.28
2022-10-26T15:34:00.488Z,99063.28
2022-10-26T15:36:27.499Z,99070.75
2022-10-26T15:38:55.479Z,99073.38
2022-10-26T15:41:40.043Z,99076.88
2022-10-26T15:44:16.062Z,99076.31
2022-10-26T15:46:43.986Z,99080.50
2022-10-26T15:49:17.023Z,99092.28
2022-10-26T15:51:45.634Z,99091.94
2022-10-26T15:54:12.449Z,99095.06
2022-10-26T15:56:39.730Z,99087.59
2022-10-26T15:59:14.754Z,99095.63
2022-10-26T16:01:41.393Z,99097.34
2022-10-26T16:04:10.807Z,99103.81
2022-10-26T16:06:39.877Z,99091.63
2022-10-26T16:09:10.465Z,99106.06
2022-10-26T16:11:36.951Z,99108.88
2022-10-26T16:14:04.072Z,99108.81
2022-10-26T16:16:30.803Z,99110.47
2022-10-26T16:19:11.713Z,99109.81
2022-10-26T16:21:43.865Z,99111.38
2022-10-26T16:24:10.847Z,99108.97
2022-10-26T16:26:37.420Z,99122.13
2022-10-26T16:29:03.883Z,99122.03
2022-10-26T16:31:30.349Z,99127.78
2022-10-26T16:34:00.307Z,99126.66
2022-10-26T16:36:29.735Z,99128.41
2022-10-26T16:38:56.238Z,99128.31
2022-10-26T16:41:22.740Z,99139.91
2022-10-26T16:43:49.201Z,99147.44
2022-10-26T16:46:20.943Z,99148.19
2022-10-26T16:48:48.700Z,99146.56
2022-10-26T16:51:17.695Z,99146.81
2022-10-26T16:53:46.835Z,99150.72
2022-10-26T16:56:17.143Z,99152.72
2022-10-26T16:58:43.677Z,99158.75
2022-10-26T17:01:12.967Z,99167.13
2022-10-26T17:03:39.906Z,99161.34
2022-10-26T17:06:07.731Z,99159.41
2022-10-26T17:08:36.695Z,99172.94
2022-10-26T17:11:12.126Z,99174.78
2022-10-26T17:13:40.119Z,99178.44
2022-10-26T17:16:10.569Z,99178.50
2022-10-26T17:18:38.445Z,99178.19
2022-10-26T17:21:05.060Z,99185.19
2022-10-26T17:23:31.601Z,99181.09
2022-10-26T17:26:06.267Z,99182.66
2022-10-26T17:28:33.280Z,99190.06
2022-10-26T17:31:08.094Z,99195.66
2022-10-26T17:33:36.262Z,99197.84
2022-10-26T17:36:04.320Z,99202.97
2022-10-26T17:38:35.836Z,99207.09
2022-10-26T17:41:08.383Z,99217.50
2022-10-26T17:43:37.816Z,99229.72
2022-10-26T17:46:26.197Z,99224.00
2022-10-26T17:48:58.532Z,99240.09
2022-10-26T17:51:26.286Z,99231.50
2022-10-26T17:53:52.839Z,99237.56
2022-10-26T17:56:22.521Z,99229.47
2022-10-26T17:58:54.367Z,99228.56
2022-10-26T18:01:21.406Z,99229.56
2022-10-26T18:03:48.190Z,99236.88
2022-10-26T18:06:17.123Z,99243.13
2022-10-26T18:08:44.628Z,99250.22
2022-10-26T18:11:14.946Z,99257.03
2022-10-26T18:13:41.456Z,99254.75
2022-10-26T18:16:10.586Z,99262.53
2022-10-26T18:18:40.983Z,99267.41
2022-10-26T18:21:08.823Z,99275.47
2022-10-26T18:23:36.376Z,99271.34
2022-10-26T18:26:11.141Z,99273.69
2022-10-26T18:28:39.934Z,99280.25
2022-10-26T18:31:08.659Z,99279.97
2022-10-26T18:33:35.725Z,99279.06
2022-10-26T18:36:13.981Z,99282.94
2022-10-26T18:38:40.629Z,99273.78
2022-10-26T18:41:09.999Z,99280.03
2022-10-26T18:43:40.684Z,99286.44
2022-10-26T18:46:18.972Z,99281.78
2022-10-26T18:48:48.126Z,99287.97
2022-10-26T18:51:17.599Z,99290.16
2022-10-26T18:53:45.188Z,99293.88
2022-10-26T18:56:14.650Z,99297.09
2022-10-26T18:58:43.365Z,99302.25
2022-10-26T19:01:13.187Z,99303.06
2022-10-26T19:03:40.377Z,99298.81
2022-10-26T19:06:17.796Z,99307.03
2022-10-26T19:08:45.323Z,99310.69
2022-10-26T19:11:17.211Z,99319.28
2022-10-26T19:13:44.336Z,99323.66
2022-10-26T19:16:33.229Z,99325.47
2022-10-26T19:19:03.244Z,99327.38
2022-10-26T19:21:29.883Z,99327.25
2022-10-26T19:23:58.663Z,99335.19
2022-10-26T19:26:33.618Z,99332.06
2022-10-26T19:29:06.903Z,99339.94
2022-10-26T19:31:35.575Z,99333.97
2022-10-26T19:34:02.704Z,99335.84
2022-10-26T19:36:30.088Z,99344.56
2022-10-26T19:38:56.689Z,99337.56
2022-10-26T19:41:26.410Z,99344.44
2022-10-26T19:43:54.224Z,99345.66
2022-10-26T19:46:23.556Z,99349.41
2022-10-26T19:48:51.929Z,99351.28
2022-10-26T19:51:18.679Z,99350.31
2022-10-26T19:53:45.423Z,99362.59
2022-10-26T19:56:13.440Z,99356.34
2022-10-26T19:58:44.399Z,99359.50
2022-10-26T20:01:13.843Z,99369.00
2022-10-26T20:03:41.027Z,99363.19
2022-10-26T20:06:12.727Z,99368.47
2022-10-26T20:08:44.415Z,99367.28
2022-10-26T20:11:15.463Z,99372.94
2022-10-26T20:13:43.882Z,99381.03
2022-10-26T20:16:12.183Z,99374.84
2022-10-26T20:18:41.269Z,99379.91
2022-10-26T20:21:13.887Z,99386.13
2022-10-26T20:23:40.664Z,99387.53
2022-10-26T20:26:07.312Z,99398.78
2022-10-26T20:28:33.863Z,99388.09
2022-10-26T20:31:00.508Z,99395.94
2022-10-26T20:33:27.577Z,99398.56
2022-10-26T20:35:58.612Z,99411.66
2022-10-26T20:38:26.443Z,99407.06
2022-10-26T20:40:58.245Z,99405.06
2022-10-26T20:43:26.775Z,99412.75
2022-10-26T20:45:54.075Z,99405.50
2022-10-26T20:48:21.319Z,99408.13
2022-10-26T20:50:55.019Z,99408.53
2022-10-26T20:53:33.839Z,99407.56
2022-10-26T20:56:03.572Z,99412.59
2022-10-26T20:58:49.337Z,99405.94
2022-10-26T21:01:24.122Z,99416.59
2022-10-26T21:03:51.840Z,99412.41
2022-10-26T21:06:18.633Z,99409.22
2022-10-26T21:08:45.331Z,99409.00
2022-10-26T21:11:11.945Z,99422.69
2022-10-26T21:13:38.401Z,99422.47
2022-10-26T21:16:06.528Z,99429.13
2022-10-26T21:18:33.556Z,99427.09
2022-10-26T21:21:00.617Z,99417.66
2022-10-26T21:23:39.962Z,99423.53
2022-10-26T21:26:07.115Z,99428.31
2022-10-26T21:28:41.583Z,99422.47
2022-10-26T21:31:11.053Z,99429.31
2022-10-26T21:33:37.706Z,99430.13
2022-10-26T21:36:07.323Z,99434.34
2022-10-26T21:38:34.760Z,99445.41
2022-10-26T21:41:05.570Z,99440.19
2022-10-26T21:43:33.607Z,99437.78
2022-10-26T21:46:03.396Z,99444.41
2022-10-26T21:48:31.145Z,99440.78
2022-10-26T21:50:58.285Z,99449.66
2022-10-26T21:53:26.902Z,99443.59
2022-10-26T21:56:04.030Z,99439.59
2022-10-26T21:58:30.840Z,99440.78
2022-10-26T22:01:08.906Z,99439.41
2022-10-26T22:03:36.327Z,99440.41
2022-10-26T22:06:03.616Z,99436.59
2022-10-26T22:08:30.458Z,99440.59
2022-10-26T22:10:57.398Z,99439.75
2022-10-26T22:13:24.461Z,99444.97
2022-10-26T22:16:15.153Z,99434.72
2022-10-26T22:18:43.169Z,99439.72
2022-10-26T22:21:11.005Z,99439.94
2022-10-26T22:23:39.774Z,99430.09
2022-10-26T22:26:12.022Z,99429.69
2022-10-26T22:28:42.654Z,99440.09
2022-10-26T22:31:15.714Z,99435.69
2022-10-26T22:33:42.922Z,99449.72
2022-10-26T22:36:14.775Z,99452.13
2022-10-26T22:38:42.167Z,99454.94
2022-10-26T22:41:09.596Z,99444.69
2022-10-26T22:43:36.349Z,99448.50
2022-10-26T22:46:05.563Z,99450.88
2022-10-26T22:48:34.733Z,99457.50
2022-10-26T22:51:21.352Z,99457.09
2022-10-26T22:53:53.007Z,99460.91
2022-10-26T22:56:19.946Z,99459.50
2022-10-26T22:58:47.025Z,99463.31
2022-10-26T23:01:16.391Z,99457.47
2022-10-26T23:03:43.560Z,99455.88
2022-10-26T23:06:14.321Z,99465.09
2022-10-26T23:08:41.120Z,99468.13
2022-10-26T23:11:09.932Z,99465.28
2022-10-26T23:13:36.490Z,99471.06
2022-10-26T23:16:07.598Z,99480.53
2022-10-26T23:18:34.883Z,99478.94
2022-10-26T23:21:02.005Z,99484.72
2022-10-26T23:23:28.520Z,99482.13
2022-10-26T23:25:59.140Z,99478.31
2022-10-26T23:28:25.615Z,99481.09
2022-10-26T23:30:52.049Z,99483.88
2022-10-26T23:33:18.480Z,99476.06
2022-10-26T23:35:44.991Z,99481.50
2022-10-26T23:38:11.489Z,99487.09
2022-10-26T23:40:38.012Z,99493.72
2022-10-26T23:43:04.481Z,99494.47
2022-10-26T23:45:30.935Z,99489.31
2022-10-26T23:47:57.391Z,99493.09
2022-10-26T23:50:24.022Z,99482.84
2022-10-26T23:52:50.691Z,99483.63
2022-10-26T23:55:17.218Z,99498.28
2022-10-26T23:57:43.791Z,99500.69
